Аргунское

Карта отелей и гостиниц, располагающихся рядом с аэропортом Аргунское :

Аргунское Хабаровский край 47° 57' 12.78" N, 134° 35' 56.2812" E
Аргунское Хабаровский край 47° 57' 12.78" N, 134° 35' 56.2812" E
Код аэродрома ИКАО: 
HC56
Код аэродрома RU: 
ХЦ56
Координаты: 
N47.95355° E134.59897°
Превышение над уровнем моря : 
43
Основная полоса: 
Курс магнитный: 
Длина основной ВПП: 
12
Ширина основной ВПП: 
12
Покрытие основной ВПП: 
Твёрдое (бетон)
Освещение ВПП: 
Нет
Тип: 
Вертодром
Класс аэродрома: 
Принадлежность: 
ФСБ
Статус: 
Действующий
Сайт: 
E-mail аэродрома: 
Страна: 
Россия
Регион: 
Хабаровский край
Город: 
Дополнительная информация: 
Хабаровский край. Погранзастава ФСБ РФ.

Найти трансфер

С помощью этой формы Вы можете найти трансфер из аэропорта Аргунское в город, аэропорт или вокзал:

Карта места

Javascript is required to view this map.

Погода в аэропортах:

Авиационная погода в аэропорту Сокол

Регион: 
Погода METAR: 
UHMM 282000Z 09001MPS 0150 R10/0150N FU FZFG VV001 M01/M02 Q1007 R10/CLRD70 RMK QBB050 MT OBSC QFE740 R28/07002MPS
Время наблюдения: 
2020-09-28T20:00:00Z
Температура C: 
-1.0
Точка росы: 
-2.0
Направление ветра: 
90
Скорость ветра (узлы): 
2
Метеорологическая видимость: 
0.09
Явления погоды: 
FU FZFG
Условия полета: 
LIFR
Аэропорт подробнее: 

Авиационная погода в Усть-Каменогорске

Регион: 
Погода METAR: 
UASK 282000Z 26002MPS 5000 BR BKN031 BKN083 04/03 Q1026 R30/090060 NOSIG RMK QFE743/0991
Время наблюдения: 
2020-09-28T20:00:00Z
Температура C: 
4.0
Точка росы: 
3.0
Направление ветра: 
260
Скорость ветра (узлы): 
4
Метеорологическая видимость: 
3.11
Явления погоды: 
BR
Условия полета: 
MVFR
Аэропорт подробнее: 

Авиационная погода в Куусамо

Регион: 
Погода METAR: 
EFKS 281950Z AUTO 15006KT 1500 1200 R12/1900N BCFG VV001 09/09 Q1022
Время наблюдения: 
2020-09-28T19:50:00Z
Температура C: 
9.0
Точка росы: 
9.0
Направление ветра: 
150
Скорость ветра (узлы): 
6
Метеорологическая видимость: 
0.93
Явления погоды: 
BCFG
Условия полета: 
LIFR

Авиационная погода в Чорлу

Регион: 
Погода METAR: 
LTBU 281950Z 16011KT 9999 -SHRA SCT040 BKN100 21/18 Q1014 RMK RWY22 17013KT
Время наблюдения: 
2020-09-28T19:50:00Z
Температура C: 
21.0
Точка росы: 
18.0
Направление ветра: 
160
Скорость ветра (узлы): 
11
Метеорологическая видимость: 
6.21
Явления погоды: 
-SHRA
Условия полета: 
VFR